Terminal Aerodrome Forecast
Issued by NWS Charleston, WV

Current Version | Previous Version | Graphics & Text | Print | Product List | Glossary On
Versions: 1 2 3 4 5 6 7 8 9 10 11 12 13 14 15 16 17 18 19 20 21 22 23
528
FTUS41 KRLX 101022 AAB
TAFHTS
TAF AMD
KHTS 101022Z 1010/1106 25009G16KT 6SM -SHSN OVC025
      TEMPO 1010/1014 1SM -SHSN OVC015
     FM101400 24008KT P6SM -SHSN BKN025 OVC035
     FM101700 26009KT P6SM OVC035
     FM110200 26009KT P6SM BKN025=

USA.gov is the U.S. government's official web portal to all federal, state and local government web resources and services.